createdAt,value
2023-05-09T15:17:02.173Z,96947.53
2023-05-09T15:19:29.449Z,96952.38
2023-05-09T15:21:56.553Z,96948.88
2023-05-09T15:24:23.756Z,96953.13
2023-05-09T15:26:54.015Z,96958.41
2023-05-09T15:29:21.494Z,96954.22
2023-05-09T15:31:48.669Z,96962.09
2023-05-09T15:34:17.539Z,96964.13
2023-05-09T15:36:44.770Z,96958.41
2023-05-09T15:39:11.928Z,96960.13
2023-05-09T15:41:39.866Z,96959.31
2023-05-09T15:44:07.158Z,96957.66
2023-05-09T15:46:34.541Z,96955.63
2023-05-09T15:49:01.750Z,96952.28
2023-05-09T15:51:30.347Z,96957.38
2023-05-09T15:53:57.548Z,96964.13
2023-05-09T15:56:24.781Z,96963.91
2023-05-09T15:58:51.875Z,96958.09
2023-05-09T16:01:19.153Z,96951.16
2023-05-09T16:03:46.534Z,96953.00
2023-05-09T16:06:13.892Z,96950.59
2023-05-09T16:08:42.563Z,96951.72
2023-05-09T16:11:10.065Z,96956.81
2023-05-09T16:13:37.439Z,96956.19
2023-05-09T16:16:05.514Z,96950.09
2023-05-09T16:18:33.170Z,96954.13
2023-05-09T16:21:00.312Z,96954.94
2023-05-09T16:23:29.315Z,96949.16
2023-05-09T16:25:58.199Z,96949.91
2023-05-09T16:28:25.319Z,96944.91
2023-05-09T16:30:52.588Z,96950.72
2023-05-09T16:33:19.949Z,96950.78
2023-05-09T16:35:47.287Z,96945.47
2023-05-09T16:38:14.478Z,96944.16
2023-05-09T16:40:41.788Z,96955.06
2023-05-09T16:43:10.259Z,96944.97
2023-05-09T16:45:37.511Z,96953.50
2023-05-09T16:48:05.492Z,96946.53
2023-05-09T16:50:32.931Z,96943.88
2023-05-09T16:53:00.240Z,96950.03
2023-05-09T16:55:27.671Z,96956.38
2023-05-09T16:57:56.322Z,96966.78
2023-05-09T17:00:25.303Z,96967.56
2023-05-09T17:02:52.840Z,96961.44
2023-05-09T17:05:20.173Z,96968.38
2023-05-09T17:07:47.437Z,96966.53
2023-05-09T17:10:14.885Z,96967.06
2023-05-09T17:12:42.439Z,96970.53
2023-05-09T17:15:10.263Z,96979.59
2023-05-09T17:17:39.077Z,96963.63
2023-05-09T17:20:07.723Z,96966.25
2023-05-09T17:22:36.963Z,96977.47
2023-05-09T17:25:05.032Z,96969.44
2023-05-09T17:27:32.254Z,96980.59
2023-05-09T17:29:59.573Z,96969.97
2023-05-09T17:32:26.865Z,96977.41
2023-05-09T17:34:55.458Z,96979.00
2023-05-09T17:37:22.684Z,96979.31
2023-05-09T17:39:49.870Z,96987.00
2023-05-09T17:42:17.084Z,96989.16
2023-05-09T17:44:44.610Z,97000.03
2023-05-09T17:47:11.819Z,97005.34
2023-05-09T17:49:39.053Z,97001.59
2023-05-09T17:52:07.600Z,96999.72
2023-05-09T17:54:34.717Z,97003.19
2023-05-09T17:57:01.844Z,97014.38
2023-05-09T17:59:29.015Z,97003.97
2023-05-09T18:01:56.354Z,96999.72
2023-05-09T18:04:23.650Z,97006.09
2023-05-09T18:06:50.788Z,96999.22
2023-05-09T18:09:19.351Z,97002.38
2023-05-09T18:11:46.545Z,97005.34
2023-05-09T18:14:13.766Z,97012.75
2023-05-09T18:16:40.936Z,97014.59
2023-05-09T18:19:08.042Z,97014.59
2023-05-09T18:21:35.222Z,97012.50
2023-05-09T18:24:02.418Z,97017.03
2023-05-09T18:26:31.108Z,97021.03
2023-05-09T18:28:58.486Z,97020.22
2023-05-09T18:31:25.683Z,97025.03
2023-05-09T18:33:53.057Z,97021.03
2023-05-09T18:36:20.299Z,97032.19
2023-05-09T18:38:47.671Z,97030.00
2023-05-09T18:41:14.763Z,97028.97
2023-05-09T18:43:43.664Z,97024.22
2023-05-09T18:46:10.917Z,97021.56
2023-05-09T18:48:37.972Z,97024.47
2023-05-09T18:51:05.159Z,97023.09
2023-05-09T18:53:32.227Z,97028.16
2023-05-09T18:55:59.286Z,97024.97
2023-05-09T18:58:26.510Z,97022.34
2023-05-09T19:00:55.168Z,97028.97
2023-05-09T19:03:22.426Z,97020.44
2023-05-09T19:05:49.623Z,97020.94
2023-05-09T19:08:16.934Z,97018.53
2023-05-09T19:10:43.962Z,97017.50
2023-05-09T19:13:12.407Z,97022.03
2023-05-09T19:15:41.303Z,97022.91
2023-05-09T19:18:10.026Z,97028.16
2023-05-09T19:20:46.413Z,97029.47
2023-05-09T19:23:13.475Z,97045.47
2023-05-09T19:25:40.768Z,97041.97
2023-05-09T19:28:07.981Z,97048.88
2023-05-09T19:30:35.159Z,97049.38
2023-05-09T19:33:02.368Z,97051.81
2023-05-09T19:35:31.092Z,97068.81
2023-05-09T19:37:58.372Z,97074.59
2023-05-09T19:40:25.712Z,97065.59
2023-05-09T19:42:52.896Z,97084.72
2023-05-09T19:45:20.314Z,97086.56
2023-05-09T19:47:47.553Z,97078.84
2023-05-09T19:50:14.966Z,97091.81
2023-05-09T19:52:43.639Z,97084.44
2023-05-09T19:55:10.942Z,97081.53
2023-05-09T19:57:38.008Z,97089.47
2023-05-09T20:00:06.054Z,97090.56
2023-05-09T20:02:33.333Z,97086.81
2023-05-09T20:05:00.570Z,97086.78
2023-05-09T20:07:28.157Z,97081.72
2023-05-09T20:09:56.799Z,97085.94
2023-05-09T20:12:23.976Z,97080.91
2023-05-09T20:14:51.063Z,97069.78
2023-05-09T20:17:18.492Z,97076.63
2023-05-09T20:19:45.672Z,97090.44
2023-05-09T20:22:12.851Z,97093.53
2023-05-09T20:24:40.820Z,97083.56
2023-05-09T20:27:09.480Z,97080.63
2023-05-09T20:29:36.685Z,97086.56
2023-05-09T20:32:04.020Z,97079.38
